Airfield :
LOGIN :

Register | Disclaimer

   EN    FR    IT 

 










Legend :    VFR   Marginal VFR   IFR   Intensive IFR   Very Intensive IFR
Visi :
Ceiling :
>= 8 km
>= 3000ft
5 to 8 km
1000 to 3000 ft
1500m to 5 km
500 to 1000 ft
800 to 1500m
200 to 500 ft
< 800m
< 200 ft
Symbols :   Thunderstorms  Fog  Heavy snow  Heavy precipitations  Wind > 20 kt
SIGMETs :     Misc.  Thunderstorms  Icing  Turbulence  Mountain Waves  Volcanic Ashes






- Airport Elevation : 776 ft
- IATA code : RMS


ETAR - Ramstein Air Base

CURRENT METAR :
  • 171917Z AUTO 25006KT 9999 OVC012 04/04 A3058 RMK AO2 RAB03E12 SLP370 $

EXPIRED METARs :
  • 171903Z AUTO 24007KT 9999 -RA OVC011 04/04 A3058 RMK AO2 RAB03 SLP370 $
  • 171856Z AUTO 25008KT 9999 OVC011 04/04 A3058 RMK AO2 RAB43E55 SLP370 P0000 T00430043 $
  • 171843Z AUTO 26006KT 9999 -RA OVC011 04/04 A3058 RMK AO2 RAB43 SLP370 $
  • 171821Z AUTO 23005KT 9999 OVC011 04/04 A3058 RMK AO2 SLP370 $
  • 171756Z AUTO 24007KT 9999 OVC010 04/04 A3057 RMK AO2 SLP367 60000 T00420042 10044 20030 52010 $
  • 171726Z AUTO 24007KT 9999 OVC011 04/04 A3057 RMK AO2 SLP367 $
  • 171656Z AUTO 25009KT 9999 OVC012 04/04 A3056 RMK AO2 SLP363 T00420042 $

TAF TAF ETAR
Valid from the 17 at 18:00 until the 19 at 00:00 UTC


171800Z 1718/1824 25009KT 9999 OVC010 QNH3057INS
TEMPO 1721/1723 OVC009
BECMG 1722/1723 26009KT 3200 BR OVC008 620352 QNH3059INS
BECMG 1804/1805 VRB04KT 1600 BR SCT008 QNH3060INS
BECMG 1809/1810 04006KT 8000 BR SCT008 BKN015 QNH3060INS
BECMG 1818/1819 08006KT 9999 NSW FEW015 QNH3048INS TX05/1812Z TN01/1803Z



MET'MAP, your aeronautical weather chart ! - Copyright ORBIFLY December 2007 - Disclaimer

ORBIFLY MET'MAP TEAM :

Programming & Development : Alexandra Zaïnal
Concept & original design : Baudouin d'Aumeries
Assistance for programming : Marc-Olivier Méhu
Technical & hardware support : Manuel Goepfert

Contact : metmap@orbifly.com




SOURCES & CREDITS :

   NOAA